Time;durP1;ratioP1;P1;durP2;ratioP2;P2;SDS_P1;SDS_P2;PMS_P1;PMS_P2;Temp;Humidity;BMP_temperature;BMP_pressure;BME280_temperature;BME280_humidity;BME280_pressure;Samples;Min_cycle;Max_cycle;Signal;HPM_P1;HPM_P2
2021/12/28 00:00:10;;;;;;;10.10;9.63;;;14.70;85.30;;;;;;4971007;28;20038;-81
2021/12/28 00:02:36;;;;;;;9.90;9.45;;;14.70;85.40;;;;;;4971736;28;20030;-81
2021/12/28 00:05:02;;;;;;;9.98;9.50;;;14.70;85.30;;;;;;4973224;28;20035;-81
2021/12/28 00:07:28;;;;;;;10.10;9.63;;;14.70;85.40;;;;;;4972764;28;20046;-81
2021/12/28 00:09:54;;;;;;;9.02;8.63;;;14.70;85.40;;;;;;4972618;28;20031;-81
2021/12/28 00:12:20;;;;;;;10.60;10.10;;;14.70;85.40;;;;;;4972556;28;20034;-81
2021/12/28 00:15:05;;;;;;;9.82;9.38;;;14.70;85.40;;;;;;4973161;28;20418;-82
2021/12/28 00:20:15;;;;;;;9.15;8.75;;;14.70;85.50;;;;;;4974162;28;20042;-81
2021/12/28 00:22:41;;;;;;;9.10;8.70;;;14.60;85.40;;;;;;4968105;28;20027;-82
2021/12/28 00:25:08;;;;;;;9.30;8.90;;;14.70;85.50;;;;;;4957747;28;20034;-81
2021/12/28 00:27:34;;;;;;;9.77;9.35;;;14.70;86.30;;;;;;4969143;28;20031;-81
2021/12/28 00:30:01;;;;;;;10.57;10.07;;;14.70;85.50;;;;;;4959437;28;20046;-81
2021/12/28 00:32:28;;;;;;;11.57;11.07;;;14.70;85.50;;;;;;4972957;28;20034;-81
2021/12/28 00:34:54;;;;;;;9.25;8.85;;;14.70;85.60;;;;;;4969494;28;20034;-81
2021/12/28 00:37:20;;;;;;;9.95;9.50;;;14.70;85.50;;;;;;4965865;28;20042;-81
2021/12/28 00:39:46;;;;;;;11.40;10.88;;;14.70;85.60;;;;;;4974698;28;20515;-81
2021/12/28 00:42:13;;;;;;;10.55;10.05;;;14.70;85.50;;;;;;4973440;28;20038;-81
2021/12/28 00:44:39;;;;;;;9.57;9.18;;;14.70;85.60;;;;;;4961087;28;20498;-81
2021/12/28 00:47:06;;;;;;;10.27;9.77;;;14.70;85.60;;;;;;4961747;28;20040;-81
2021/12/28 00:49:32;;;;;;;10.40;9.90;;;14.70;85.60;;;;;;4962897;28;20042;-81
2021/12/28 00:51:58;;;;;;;9.85;9.43;;;14.70;85.60;;;;;;4969792;28;20046;-81
2021/12/28 00:54:24;;;;;;;10.35;9.85;;;14.70;85.60;;;;;;4970157;28;20380;-81
2021/12/28 00:56:50;;;;;;;9.95;9.45;;;14.70;85.60;;;;;;4974705;28;20054;-81
2021/12/28 00:59:16;;;;;;;9.00;8.60;;;14.70;85.60;;;;;;4960745;28;20047;-81
2021/12/28 01:01:42;;;;;;;9.27;8.88;;;14.70;85.70;;;;;;4951621;28;20042;-81
2021/12/28 01:04:08;;;;;;;10.43;9.93;;;14.70;85.70;;;;;;4964075;28;20035;-81
2021/12/28 01:06:34;;;;;;;8.77;8.38;;;14.70;85.70;;;;;;4986470;28;20030;-81
2021/12/28 01:09:01;;;;;;;11.55;11.02;;;14.70;85.70;;;;;;4962083;28;20511;-81
2021/12/28 01:11:27;;;;;;;9.38;8.88;;;14.70;85.70;;;;;;4971614;28;20050;-81
2021/12/28 01:13:53;;;;;;;10.93;10.43;;;14.70;85.70;;;;;;4953173;28;20034;-81
2021/12/28 01:16:19;;;;;;;10.98;10.48;;;14.80;85.80;;;;;;4968501;28;20491;-81
2021/12/28 01:18:45;;;;;;;10.68;10.18;;;14.70;85.80;;;;;;4973007;28;20027;-81
2021/12/28 01:21:11;;;;;;;8.55;8.15;;;14.70;85.70;;;;;;4965696;28;20357;-81
2021/12/28 01:23:37;;;;;;;8.63;8.15;;;14.70;85.80;;;;;;4960146;28;20031;-81
2021/12/28 01:26:03;;;;;;;11.23;10.68;;;14.70;85.80;;;;;;4968215;28;20057;-81
2021/12/28 01:28:29;;;;;;;9.40;9.00;;;14.70;85.80;;;;;;4968903;28;20027;-81
2021/12/28 01:30:55;;;;;;;10.07;9.57;;;14.70;85.80;;;;;;4964722;28;20062;-81
2021/12/28 01:33:21;;;;;;;8.57;8.18;;;14.70;85.90;;;;;;4948443;28;20492;-81
2021/12/28 01:35:48;;;;;;;9.55;9.15;;;14.70;85.90;;;;;;4959083;28;20031;-80
2021/12/28 01:38:14;;;;;;;9.15;8.75;;;14.70;85.90;;;;;;4969295;28;20572;-80
2021/12/28 01:40:41;;;;;;;10.50;10.00;;;14.70;85.90;;;;;;4972926;28;20035;-80
2021/12/28 01:43:14;;;;;;;9.75;9.25;;;14.70;85.90;;;;;;4944966;28;20047;-80
2021/12/28 01:45:51;;;;;;;8.93;8.52;;;14.70;85.90;;;;;;4945598;28;20039;-80
2021/12/28 01:48:41;;;;;;;9.57;9.18;;;14.70;85.90;;;;;;4969765;28;20023;-80
2021/12/28 01:51:12;;;;;;;10.75;10.25;;;14.70;85.90;;;;;;4969554;28;20049;-80
2021/12/28 01:53:38;;;;;;;8.68;8.27;;;14.70;85.90;;;;;;4973808;28;20495;-80
2021/12/28 01:56:17;;;;;;;9.45;9.05;;;14.70;86.00;;;;;;4964608;28;20051;-80
2021/12/28 01:58:44;;;;;;;8.93;8.52;;;14.70;86.00;;;;;;4967181;28;20031;-80
2021/12/28 02:01:10;;;;;;;10.65;10.15;;;14.70;85.90;;;;;;4961457;28;20043;-80
2021/12/28 02:03:37;;;;;;;9.13;8.73;;;14.70;86.00;;;;;;4957243;28;20041;-80
2021/12/28 02:06:04;;;;;;;8.38;7.97;;;14.70;86.00;;;;;;4957056;28;20039;-81
2021/12/28 02:08:30;;;;;;;9.20;8.80;;;14.70;86.00;;;;;;4969812;28;20050;-80
2021/12/28 02:10:56;;;;;;;10.45;9.95;;;14.70;86.00;;;;;;4940131;28;20051;-80
2021/12/28 02:13:23;;;;;;;9.43;9.02;;;14.70;86.00;;;;;;4954166;28;20042;-80
2021/12/28 02:15:49;;;;;;;8.57;8.18;;;14.70;86.00;;;;;;4938902;28;20046;-80
2021/12/28 02:18:16;;;;;;;9.07;8.57;;;14.70;86.10;;;;;;4940250;28;20499;-80
2021/12/28 02:20:43;;;;;;;8.80;8.40;;;14.70;86.10;;;;;;4964681;28;20034;-80
2021/12/28 02:23:09;;;;;;;9.43;9.02;;;14.70;86.10;;;;;;4962230;28;20043;-80
2021/12/28 02:25:35;;;;;;;9.10;8.70;;;14.70;86.10;;;;;;4961026;28;20023;-80
2021/12/28 02:28:03;;;;;;;9.43;9.02;;;14.70;86.10;;;;;;4962198;28;20500;-80
2021/12/28 02:30:29;;;;;;;8.70;8.30;;;14.70;86.10;;;;;;4956680;28;20038;-80
2021/12/28 02:32:55;;;;;;;8.50;8.10;;;14.70;86.10;;;;;;4965564;28;20175;-80
2021/12/28 02:35:23;;;;;;;9.27;8.88;;;14.70;86.10;;;;;;4950266;28;20057;-80
2021/12/28 02:37:49;;;;;;;8.88;8.48;;;14.70;86.10;;;;;;4969844;28;20038;-80
2021/12/28 02:40:18;;;;;;;9.48;9.07;;;14.70;86.10;;;;;;4971712;28;20038;-80
2021/12/28 02:42:45;;;;;;;9.07;8.68;;;14.70;86.10;;;;;;4956243;28;20026;-80
2021/12/28 02:45:31;;;;;;;9.95;9.45;;;14.60;86.10;;;;;;4940519;28;20062;-80
2021/12/28 02:47:57;;;;;;;9.30;8.90;;;14.60;86.20;;;;;;4957431;28;20042;-80
2021/12/28 02:50:30;;;;;;;9.20;8.80;;;14.60;86.20;;;;;;4982533;28;20031;-80
2021/12/28 02:52:56;;;;;;;8.85;8.45;;;14.60;86.20;;;;;;4952187;28;20031;-80
2021/12/28 02:55:25;;;;;;;8.25;7.85;;;14.60;87.00;;;;;;4971613;28;20404;-80
2021/12/28 02:57:57;;;;;;;9.30;8.80;;;14.60;86.30;;;;;;4965913;28;20058;-80
2021/12/28 03:00:33;;;;;;;9.23;8.82;;;14.60;86.30;;;;;;4988227;28;20065;-80
2021/12/28 03:02:59;;;;;;;9.07;8.68;;;14.60;86.30;;;;;;4969875;28;20384;-80
2021/12/28 03:05:25;;;;;;;9.73;8.90;;;14.60;86.30;;;;;;4956080;28;20045;-80
2021/12/28 03:07:52;;;;;;;10.05;9.55;;;14.60;86.20;;;;;;4971836;28;20038;-80
2021/12/28 03:10:18;;;;;;;9.75;9.35;;;14.60;86.30;;;;;;4973204;28;20042;-80
2021/12/28 03:12:44;;;;;;;9.77;9.35;;;14.60;86.30;;;;;;4974049;28;20035;-80
2021/12/28 03:15:10;;;;;;;9.30;8.90;;;14.60;86.30;;;;;;4974617;28;20063;-80
2021/12/28 03:17:39;;;;;;;9.40;9.00;;;14.60;86.30;;;;;;4974369;28;20046;-80
2021/12/28 03:20:06;;;;;;;11.20;10.32;;;14.60;86.30;;;;;;4957091;28;20027;-80
2021/12/28 03:22:36;;;;;;;9.73;9.30;;;14.60;86.30;;;;;;4977445;28;20035;-80
2021/12/28 03:25:03;;;;;;;9.10;8.70;;;14.60;86.40;;;;;;4971529;28;20037;-81
2021/12/28 03:27:29;;;;;;;9.27;8.88;;;14.60;86.40;;;;;;4962789;28;20035;-80
2021/12/28 03:29:55;;;;;;;10.23;9.73;;;14.60;86.40;;;;;;4979072;28;20027;-80
2021/12/28 03:32:21;;;;;;;9.48;9.07;;;14.60;86.50;;;;;;4963033;28;20551;-80
2021/12/28 03:34:47;;;;;;;10.27;9.77;;;14.50;86.30;;;;;;4966962;28;20031;-80
2021/12/28 03:37:14;;;;;;;9.10;8.70;;;14.60;86.40;;;;;;4976733;28;20400;-80
2021/12/28 03:39:40;;;;;;;9.95;9.45;;;14.60;86.40;;;;;;4965249;28;20039;-80
2021/12/28 03:42:06;;;;;;;9.55;9.15;;;14.50;86.30;;;;;;4962263;28;20042;-80
2021/12/28 03:44:32;;;;;;;9.35;8.95;;;14.60;86.40;;;;;;4949309;29;20047;-79
2021/12/28 03:46:58;;;;;;;9.57;9.18;;;14.50;86.30;;;;;;4951077;28;20055;-80
2021/12/28 03:49:24;;;;;;;9.75;9.30;;;14.60;86.40;;;;;;4977382;28;20053;-80
2021/12/28 03:51:50;;;;;;;10.65;10.15;;;14.50;86.40;;;;;;4978405;28;20038;-80
2021/12/28 03:54:16;;;;;;;9.18;8.77;;;14.50;86.40;;;;;;4977053;28;20038;-80
2021/12/28 03:56:43;;;;;;;9.60;9.20;;;14.50;86.50;;;;;;4964221;28;20509;-80
2021/12/28 03:59:09;;;;;;;10.18;9.68;;;14.50;86.50;;;;;;4977979;28;20034;-80
2021/12/28 04:01:35;;;;;;;9.82;9.40;;;14.50;86.50;;;;;;4941146;28;20407;-79
2021/12/28 04:04:01;;;;;;;9.50;9.05;;;14.50;86.50;;;;;;4984861;28;20062;-80
2021/12/28 04:06:28;;;;;;;10.25;9.75;;;14.50;86.50;;;;;;4973992;28;20026;-80
2021/12/28 04:08:57;;;;;;;9.40;9.00;;;14.50;86.40;;;;;;4975103;28;20027;-80
2021/12/28 04:11:26;;;;;;;11.18;10.68;;;14.50;86.40;;;;;;4975586;28;20039;-79
2021/12/28 04:13:54;;;;;;;9.23;8.82;;;14.50;86.50;;;;;;4974278;28;20034;-79
2021/12/28 04:16:20;;;;;;;9.15;8.75;;;14.50;86.50;;;;;;4964958;28;20046;-79
2021/12/28 04:18:46;;;;;;;9.85;9.40;;;14.50;86.50;;;;;;4962407;28;20070;-79
2021/12/28 04:21:13;;;;;;;9.15;8.75;;;14.50;86.50;;;;;;4942687;28;20031;-80
2021/12/28 04:23:39;;;;;;;9.05;8.65;;;14.50;86.50;;;;;;4960293;28;20043;-79
2021/12/28 04:26:05;;;;;;;9.07;8.68;;;14.50;86.50;;;;;;4963215;28;20035;-80
2021/12/28 04:28:31;;;;;;;10.30;9.80;;;14.50;86.40;;;;;;4963966;28;20027;-79
2021/12/28 04:30:57;;;;;;;9.40;9.00;;;14.50;86.40;;;;;;4942490;28;20047;-79
2021/12/28 04:33:23;;;;;;;9.00;8.60;;;14.50;86.40;;;;;;4958346;28;20033;-79
2021/12/28 04:35:49;;;;;;;8.88;8.48;;;14.50;86.50;;;;;;4959825;28;20035;-80
2021/12/28 04:38:16;;;;;;;9.38;8.98;;;14.50;86.50;;;;;;4957918;28;20400;-80
2021/12/28 04:40:43;;;;;;;9.80;9.35;;;14.50;86.60;;;;;;4936783;29;20039;-79
2021/12/28 04:43:11;;;;;;;9.63;9.23;;;14.40;86.50;;;;;;4958945;28;20432;-79
2021/12/28 04:45:37;;;;;;;8.88;8.48;;;14.50;86.50;;;;;;4973172;28;20050;-79
2021/12/28 04:48:05;;;;;;;9.85;9.43;;;14.40;86.50;;;;;;4941705;28;20046;-79
2021/12/28 04:50:37;;;;;;;9.45;9.05;;;14.50;86.60;;;;;;4963105;28;20050;-79
2021/12/28 04:53:09;;;;;;;10.20;9.70;;;14.50;86.60;;;;;;4961518;28;20028;-79
2021/12/28 04:55:40;;;;;;;9.30;8.90;;;14.40;86.50;;;;;;4962432;28;20023;-79
2021/12/28 04:58:07;;;;;;;;;;;14.50;86.50;;;;;;4961886;28;20047;-79
2021/12/28 05:00:33;;;;;;;10.30;9.82;;;14.40;86.50;;;;;;4972733;28;19914;-78
2021/12/28 05:02:59;;;;;;;10.10;9.63;;;14.40;86.40;;;;;;4956285;28;20547;-80
2021/12/28 05:05:25;;;;;;;11.20;10.63;;;14.40;86.50;;;;;;4963574;28;20027;-81
2021/12/28 05:07:51;;;;;;;10.10;9.60;;;14.40;86.50;;;;;;4972621;28;20396;-81
2021/12/28 05:10:17;;;;;;;10.75;10.25;;;14.30;86.50;;;;;;4974320;28;20025;-82
2021/12/28 05:12:44;;;;;;;10.30;9.80;;;14.40;86.50;;;;;;4972435;28;20046;-83
2021/12/28 05:15:10;;;;;;;10.15;9.65;;;14.40;86.60;;;;;;4969513;28;20039;-82
2021/12/28 05:17:36;;;;;;;8.82;8.43;;;14.40;86.60;;;;;;4974783;28;20037;-81
2021/12/28 05:20:04;;;;;;;9.05;8.55;;;14.40;86.60;;;;;;4972927;28;20037;-81
2021/12/28 05:22:30;;;;;;;9.13;8.73;;;14.30;86.60;;;;;;4969581;28;20242;-81
2021/12/28 05:24:56;;;;;;;9.20;8.80;;;14.40;86.60;;;;;;4961714;28;20026;-81
2021/12/28 05:27:23;;;;;;;9.00;8.50;;;14.40;86.70;;;;;;4983238;28;20039;-83
2021/12/28 05:29:49;;;;;;;8.77;8.38;;;14.40;86.60;;;;;;4957712;28;20038;-82
2021/12/28 05:32:16;;;;;;;8.88;8.48;;;14.40;86.60;;;;;;4961102;28;20050;-82
2021/12/28 05:34:42;;;;;;;9.77;9.27;;;14.40;87.40;;;;;;4961282;28;20030;-81
2021/12/28 05:37:08;;;;;;;9.95;9.50;;;14.40;86.60;;;;;;4961687;28;20202;-81
2021/12/28 05:39:35;;;;;;;9.65;9.25;;;14.40;86.60;;;;;;4970725;28;20030;-81
2021/12/28 05:42:01;;;;;;;8.60;8.20;;;14.40;86.60;;;;;;4972860;28;20046;-81
2021/12/28 05:44:27;;;;;;;8.93;8.52;;;14.40;86.60;;;;;;4961137;28;20042;-81
2021/12/28 05:46:54;;;;;;;9.30;8.90;;;14.40;86.60;;;;;;4960724;28;20043;-81
2021/12/28 05:49:22;;;;;;;9.60;9.20;;;14.40;86.80;;;;;;4953284;28;20047;-81
2021/12/28 05:51:48;;;;;;;9.88;9.43;;;14.40;86.60;;;;;;4943360;28;20043;-81
2021/12/28 05:54:14;;;;;;;8.68;8.27;;;14.40;86.60;;;;;;4956824;28;20044;-81
2021/12/28 05:56:41;;;;;;;8.90;8.50;;;14.40;86.60;;;;;;4973909;28;20030;-81
2021/12/28 05:59:07;;;;;;;9.93;9.48;;;14.40;86.60;;;;;;4981504;28;20045;-82
2021/12/28 06:01:33;;;;;;;9.20;8.80;;;14.40;86.60;;;;;;4972392;28;20104;-82
2021/12/28 06:03:59;;;;;;;10.02;9.55;;;14.40;86.60;;;;;;4958784;28;20046;-82
2021/12/28 06:06:26;;;;;;;9.35;8.95;;;14.40;86.50;;;;;;4957726;28;20027;-81
2021/12/28 06:08:52;;;;;;;11.05;10.05;;;14.40;86.50;;;;;;4957619;28;20035;-82
2021/12/28 06:11:19;;;;;;;9.85;9.35;;;14.40;86.60;;;;;;4963041;28;20038;-82
2021/12/28 06:13:45;;;;;;;9.82;9.40;;;14.40;86.60;;;;;;4966070;28;20023;-81
2021/12/28 06:16:11;;;;;;;10.38;9.88;;;14.40;86.60;;;;;;4972281;28;20050;-81
2021/12/28 06:18:37;;;;;;;11.05;10.55;;;14.40;86.60;;;;;;4984698;28;20365;-81
2021/12/28 06:21:04;;;;;;;9.55;9.13;;;14.30;86.60;;;;;;4956152;28;20480;-83
2021/12/28 06:23:30;;;;;;;10.20;9.70;;;14.40;86.60;;;;;;4966911;28;20050;-83
2021/12/28 06:25:56;;;;;;;10.52;10.02;;;14.40;86.60;;;;;;4963419;28;20031;-83
2021/12/28 06:28:23;;;;;;;10.73;10.23;;;14.30;86.60;;;;;;4963830;28;20516;-83
2021/12/28 06:30:49;;;;;;;11.88;11.20;;;14.30;86.60;;;;;;4965310;28;20026;-81
2021/12/28 06:33:15;;;;;;;10.68;10.18;;;14.30;86.70;;;;;;4972549;28;20384;-80
2021/12/28 06:35:42;;;;;;;12.73;10.65;;;14.30;86.60;;;;;;4957968;28;20035;-81
2021/12/28 06:38:08;;;;;;;10.85;10.05;;;14.30;86.60;;;;;;4960554;28;20054;-80
2021/12/28 06:40:34;;;;;;;14.38;10.82;;;14.30;86.60;;;;;;4971097;28;20039;-81
2021/12/28 06:43:00;;;;;;;9.60;9.10;;;14.30;86.60;;;;;;4963398;28;20395;-81
2021/12/28 06:45:26;;;;;;;9.40;8.88;;;14.30;86.60;;;;;;4955706;28;20035;-80
2021/12/28 06:47:52;;;;;;;10.50;10.02;;;14.30;86.60;;;;;;4980965;28;20034;-80
2021/12/28 06:50:18;;;;;;;8.95;8.55;;;14.30;86.70;;;;;;4944718;29;20066;-80
2021/12/28 06:52:45;;;;;;;10.55;10.05;;;14.30;86.70;;;;;;4971215;28;20419;-80
2021/12/28 06:55:11;;;;;;;12.30;9.10;;;14.20;86.60;;;;;;4963127;28;20039;-80
2021/12/28 06:57:37;;;;;;;8.27;7.88;;;14.30;86.60;;;;;;4958816;28;20039;-80
2021/12/28 07:00:11;;;;;;;18.65;8.55;;;14.30;86.60;;;;;;4953700;28;20027;-87
2021/12/28 07:02:37;;;;;;;9.88;9.00;;;14.20;86.60;;;;;;4957478;28;20392;-79
2021/12/28 07:05:04;;;;;;;7.47;7.18;;;14.20;86.50;;;;;;4961666;28;20032;-80
2021/12/28 07:07:30;;;;;;;8.23;7.70;;;14.20;86.50;;;;;;4961866;28;20032;-79
2021/12/28 07:09:56;;;;;;;9.40;8.90;;;14.20;86.50;;;;;;4960117;28;20027;-79
2021/12/28 07:12:22;;;;;;;9.10;8.50;;;14.20;86.50;;;;;;4970496;28;20041;-78
2021/12/28 07:14:48;;;;;;;9.50;8.90;;;14.20;86.50;;;;;;4963257;28;20034;-81
2021/12/28 07:17:15;;;;;;;8.60;8.20;;;14.20;86.50;;;;;;4971005;28;20049;-81
2021/12/28 07:19:41;;;;;;;9.60;9.18;;;14.20;86.50;;;;;;4953365;28;20043;-80
2021/12/28 07:22:07;;;;;;;8.68;8.20;;;14.20;86.50;;;;;;4953473;28;20039;-80
2021/12/28 07:24:33;;;;;;;10.70;9.65;;;14.20;86.50;;;;;;4972140;28;20039;-80
2021/12/28 07:26:59;;;;;;;10.38;9.88;;;14.20;86.50;;;;;;4954443;28;20023;-80
2021/12/28 07:29:25;;;;;;;18.88;10.93;;;14.20;86.50;;;;;;4967930;28;20031;-79
2021/12/28 07:31:51;;;;;;;12.25;11.65;;;14.20;86.40;;;;;;4968883;28;20042;-79
2021/12/28 07:34:17;;;;;;;14.88;10.85;;;14.20;86.50;;;;;;4968777;28;20042;-80
2021/12/28 07:36:45;;;;;;;21.00;20.00;;;14.20;86.50;;;;;;4971393;28;20038;-80
2021/12/28 07:39:11;;;;;;;9.10;8.70;;;14.20;86.40;;;;;;4973991;28;20042;-80
2021/12/28 07:41:37;;;;;;;13.27;12.57;;;14.20;86.40;;;;;;4974782;28;20049;-80
2021/12/28 07:44:03;;;;;;;17.63;16.77;;;14.20;86.40;;;;;;4973802;28;20055;-80
2021/12/28 07:46:30;;;;;;;19.25;10.75;;;14.20;86.40;;;;;;4958787;28;20393;-80
2021/12/28 07:48:56;;;;;;;13.20;12.30;;;14.20;86.40;;;;;;4965151;28;20042;-80
2021/12/28 07:51:22;;;;;;;11.73;10.00;;;14.10;86.30;;;;;;4961932;28;20070;-80
2021/12/28 07:53:48;;;;;;;9.68;9.18;;;14.10;87.00;;;;;;4962535;28;20030;-80
2021/12/28 07:56:14;;;;;;;9.25;8.75;;;14.10;86.30;;;;;;4963138;28;20031;-80
2021/12/28 07:58:40;;;;;;;9.23;8.40;;;14.10;86.30;;;;;;4969256;28;20034;-78
2021/12/28 08:01:06;;;;;;;15.15;8.98;;;14.10;86.30;;;;;;4976116;28;20038;-77
2021/12/28 08:03:32;;;;;;;9.23;8.45;;;14.10;86.30;;;;;;4962408;28;20031;-80
2021/12/28 08:05:58;;;;;;;8.52;8.13;;;14.10;86.30;;;;;;4942261;28;20042;-79
2021/12/28 08:08:24;;;;;;;9.43;8.85;;;14.10;86.30;;;;;;4965987;28;20419;-79
2021/12/28 08:10:51;;;;;;;8.43;8.02;;;14.10;86.20;;;;;;4968356;28;20023;-80
2021/12/28 08:13:17;;;;;;;10.43;9.45;;;14.10;86.20;;;;;;4977768;28;20048;-79
2021/12/28 08:15:44;;;;;;;16.08;8.23;;;14.00;86.10;;;;;;4974468;28;20423;-80
2021/12/28 08:18:10;;;;;;;12.07;9.45;;;14.10;86.20;;;;;;4984327;28;20065;-80
2021/12/28 08:20:37;;;;;;;7.40;7.10;;;14.10;86.10;;;;;;4961299;28;20038;-79
2021/12/28 08:23:03;;;;;;;8.20;7.80;;;14.10;86.10;;;;;;4965434;28;20057;-80
2021/12/28 08:25:29;;;;;;;12.93;8.80;;;14.10;86.10;;;;;;4971275;28;20491;-80
2021/12/28 08:27:56;;;;;;;9.15;8.30;;;14.10;86.10;;;;;;4976939;28;20035;-81
2021/12/28 08:30:22;;;;;;;8.70;8.18;;;14.10;86.00;;;;;;4940939;28;24715;-79
2021/12/28 08:32:48;;;;;;;8.82;8.32;;;14.10;86.00;;;;;;4959187;28;20035;-80
2021/12/28 08:35:15;;;;;;;8.52;8.02;;;14.10;86.00;;;;;;4962812;28;20046;-80
2021/12/28 08:37:41;;;;;;;8.68;7.85;;;14.10;85.90;;;;;;4965016;28;20534;-79
2021/12/28 08:40:08;;;;;;;7.85;7.45;;;14.10;85.90;;;;;;4978193;28;20055;-79
2021/12/28 08:42:34;;;;;;;13.55;8.48;;;14.10;85.90;;;;;;4958301;28;20031;-81
2021/12/28 08:45:00;;;;;;;18.08;10.75;;;14.10;85.90;;;;;;4950594;28;20098;-85
2021/12/28 08:47:27;;;;;;;9.93;9.20;;;14.20;85.90;;;;;;4972276;28;20038;-81
2021/12/28 08:49:54;;;;;;;9.10;8.63;;;14.20;86.00;;;;;;4964684;28;20038;-81
2021/12/28 08:52:21;;;;;;;8.45;8.05;;;14.20;85.90;;;;;;4972744;28;20027;-84
2021/12/28 08:54:47;;;;;;;7.85;7.40;;;14.20;85.80;;;;;;4985502;28;20042;-82
2021/12/28 08:57:13;;;;;;;8.32;7.93;;;14.30;85.80;;;;;;4955901;28;20054;-84
2021/12/28 08:59:39;;;;;;;8.80;8.02;;;14.30;85.70;;;;;;4967378;28;20461;-85
2021/12/28 09:02:07;;;;;;;9.07;8.57;;;14.30;85.70;;;;;;4962271;28;20043;-85
2021/12/28 09:04:34;;;;;;;7.90;7.53;;;14.40;85.70;;;;;;4954948;28;20043;-85
2021/12/28 09:07:00;;;;;;;8.00;7.55;;;14.50;85.60;;;;;;4973101;28;20035;-83
2021/12/28 09:09:26;;;;;;;8.85;8.35;;;14.50;85.60;;;;;;4971280;28;20035;-82
2021/12/28 09:11:52;;;;;;;9.88;9.02;;;14.50;85.50;;;;;;4954554;28;20058;-86
2021/12/28 09:14:18;;;;;;;8.13;7.72;;;14.60;85.50;;;;;;4955418;28;20042;-86
2021/12/28 09:16:44;;;;;;;8.73;8.32;;;14.60;85.40;;;;;;4950817;28;20034;-85
2021/12/28 09:19:10;;;;;;;8.65;8.25;;;14.60;85.40;;;;;;4971407;28;20046;-85
2021/12/28 09:21:36;;;;;;;10.20;9.60;;;14.60;85.40;;;;;;4971838;28;20027;-86
2021/12/28 09:24:03;;;;;;;13.02;12.13;;;14.70;85.40;;;;;;4969143;28;20395;-84
2021/12/28 09:26:29;;;;;;;10.20;9.70;;;14.70;85.30;;;;;;4945190;29;20043;-82
2021/12/28 09:28:55;;;;;;;10.90;10.40;;;14.70;85.20;;;;;;4970225;28;20027;-83
2021/12/28 09:31:21;;;;;;;10.75;10.13;;;14.70;85.20;;;;;;4954323;28;20031;-84
2021/12/28 09:33:47;;;;;;;11.43;10.25;;;14.80;85.20;;;;;;4972103;28;20038;-81
2021/12/28 09:36:16;;;;;;;9.93;9.32;;;14.80;85.10;;;;;;4959128;28;20039;-82
2021/12/28 09:38:43;;;;;;;10.52;9.93;;;14.80;85.10;;;;;;4959543;28;20159;-81
2021/12/28 09:41:09;;;;;;;16.52;11.70;;;14.80;85.10;;;;;;4972614;28;20034;-84
2021/12/28 09:43:36;;;;;;;9.68;9.20;;;14.80;85.00;;;;;;4967611;28;20038;-83
2021/12/28 09:46:02;;;;;;;11.95;11.13;;;14.80;85.00;;;;;;4961668;28;20042;-79
2021/12/28 09:48:28;;;;;;;10.13;9.63;;;14.80;85.00;;;;;;4972271;28;20045;-82
2021/12/28 09:50:55;;;;;;;9.88;9.27;;;14.80;84.90;;;;;;4964446;28;20038;-83
2021/12/28 09:53:21;;;;;;;10.10;9.60;;;14.80;84.90;;;;;;4963321;28;20392;-82
2021/12/28 09:55:47;;;;;;;10.05;9.55;;;14.90;85.00;;;;;;4953352;28;20468;-84
2021/12/28 09:58:13;;;;;;;11.60;10.93;;;14.90;84.80;;;;;;4971368;28;20070;-82
2021/12/28 10:00:39;;;;;;;10.35;9.48;;;15.00;84.90;;;;;;4971285;28;20035;-86
2021/12/28 10:03:05;;;;;;;10.52;9.75;;;15.00;84.70;;;;;;4962513;28;20062;-81
2021/12/28 10:05:33;;;;;;;10.57;9.80;;;15.00;84.50;;;;;;4961236;28;20058;-83
2021/12/28 10:08:01;;;;;;;10.20;9.70;;;15.00;84.40;;;;;;4952634;28;20046;-83
2021/12/28 10:10:32;;;;;;;11.55;10.98;;;15.00;84.40;;;;;;4965592;28;20031;-83
2021/12/28 10:13:00;;;;;;;12.73;11.75;;;15.00;84.40;;;;;;4960581;28;20039;-84
2021/12/28 10:15:30;;;;;;;11.63;10.70;;;15.00;84.50;;;;;;4964734;28;20058;-84
2021/12/28 10:17:58;;;;;;;11.48;10.68;;;15.00;84.40;;;;;;4963150;28;20027;-90
2021/12/28 10:20:26;;;;;;;18.88;10.98;;;15.00;84.50;;;;;;4957958;28;20050;-87
2021/12/28 10:23:02;;;;;;;11.35;10.75;;;15.00;84.40;;;;;;4965882;28;20035;-85
2021/12/28 10:25:30;;;;;;;10.90;10.40;;;14.90;84.40;;;;;;4965768;28;20524;-85
2021/12/28 10:28:02;;;;;;;11.13;10.52;;;14.90;84.40;;;;;;4965852;28;20023;-86
2021/12/28 10:30:30;;;;;;;10.57;9.98;;;14.80;84.40;;;;;;4967889;28;20034;-85
2021/12/28 10:33:04;;;;;;;11.07;10.57;;;14.80;84.50;;;;;;4971796;28;20042;-84
2021/12/28 10:35:38;;;;;;;10.55;10.05;;;14.80;84.50;;;;;;4950448;28;20042;-84
2021/12/28 10:38:09;;;;;;;14.60;10.18;;;14.80;84.50;;;;;;4970457;28;20045;-83
2021/12/28 10:40:44;;;;;;;12.38;11.32;;;14.80;84.50;;;;;;4971523;28;20495;-81
2021/12/28 10:43:34;;;;;;;10.02;9.52;;;14.80;84.50;;;;;;4969766;28;20038;-82
2021/12/28 10:46:08;;;;;;;9.32;8.93;;;14.80;84.50;;;;;;4968334;28;20023;-84
2021/12/28 10:48:38;;;;;;;10.00;9.50;;;14.80;84.50;;;;;;4956065;28;20035;-82
2021/12/28 10:51:08;;;;;;;10.20;9.70;;;14.80;84.50;;;;;;4968935;28;20043;-84
2021/12/28 10:56:51;;;;;;;8.73;8.32;;;14.90;84.40;;;;;;4976173;28;20047;-82
2021/12/28 10:59:22;;;;;;;9.32;8.93;;;14.90;84.40;;;;;;4958002;28;20054;-84
2021/12/28 11:01:48;;;;;;;9.57;9.00;;;14.90;84.30;;;;;;4967163;28;20035;-84
2021/12/28 11:04:14;;;;;;;9.52;9.07;;;14.90;84.30;;;;;;4972146;28;20041;-82
2021/12/28 11:06:46;;;;;;;11.43;9.20;;;14.90;84.40;;;;;;4961137;28;20027;-85
2021/12/28 11:09:16;;;;;;;16.85;9.52;;;14.90;84.30;;;;;;4954404;28;20059;-85
2021/12/28 11:11:42;;;;;;;10.77;10.17;;;15.00;84.30;;;;;;4974077;28;20024;-85
2021/12/28 11:14:16;;;;;;;10.60;10.00;;;15.00;84.30;;;;;;4954135;28;20047;-83
2021/12/28 11:16:51;;;;;;;8.68;8.27;;;15.00;84.30;;;;;;4970184;28;20035;-84
2021/12/28 11:19:31;;;;;;;9.73;9.30;;;15.00;84.20;;;;;;4964657;28;20051;-85
2021/12/28 11:22:00;;;;;;;9.10;8.60;;;15.00;84.20;;;;;;4970811;28;20030;-84
2021/12/28 11:24:41;;;;;;;10.25;9.75;;;15.10;84.10;;;;;;4957989;28;20480;-83
2021/12/28 11:27:07;;;;;;;11.73;11.07;;;15.10;84.10;;;;;;4974061;28;20031;-84
2021/12/28 11:29:35;;;;;;;12.43;11.75;;;15.10;84.20;;;;;;4962037;28;20031;-85
2021/12/28 11:32:05;;;;;;;11.07;10.00;;;15.00;84.10;;;;;;4965382;28;20035;-81
2021/12/28 11:34:36;;;;;;;8.73;8.30;;;15.00;84.10;;;;;;4967990;28;20047;-82
2021/12/28 11:37:07;;;;;;;9.88;9.43;;;15.10;84.10;;;;;;4971003;28;20033;-81
2021/12/28 11:39:35;;;;;;;23.20;11.15;;;15.00;84.00;;;;;;4960098;28;20053;-83
2021/12/28 11:42:02;;;;;;;11.10;10.55;;;15.00;84.00;;;;;;4971327;28;20028;-81
2021/12/28 11:44:29;;;;;;;10.38;9.88;;;15.00;84.10;;;;;;4971349;28;20039;-83
2021/12/28 11:46:56;;;;;;;21.55;11.10;;;15.00;84.00;;;;;;4971774;28;20058;-82
2021/12/28 11:49:26;;;;;;;11.45;10.90;;;15.00;84.00;;;;;;4956318;28;20384;-81
2021/12/28 11:51:52;;;;;;;11.93;11.15;;;15.00;84.00;;;;;;4956809;28;20034;-81
2021/12/28 11:54:19;;;;;;;12.18;11.27;;;15.00;83.90;;;;;;4972426;28;20041;-82
2021/12/28 11:56:50;;;;;;;10.90;10.40;;;15.00;83.90;;;;;;4956879;28;20395;-81
2021/12/28 11:59:21;;;;;;;11.80;10.82;;;15.00;83.90;;;;;;4960628;28;20039;-82
2021/12/28 12:01:54;;;;;;;10.85;10.30;;;15.00;84.00;;;;;;4963838;28;20494;-81
2021/12/28 12:04:32;;;;;;;11.25;10.55;;;15.00;83.90;;;;;;4972825;28;20050;-82
2021/12/28 12:07:09;;;;;;;10.55;10.05;;;15.10;83.90;;;;;;4967889;28;20034;-81
2021/12/28 12:09:51;;;;;;;10.05;9.55;;;15.10;83.80;;;;;;4952394;28;20033;-81
2021/12/28 12:12:19;;;;;;;12.57;10.90;;;15.10;83.70;;;;;;4957763;28;20055;-81
2021/12/28 12:14:54;;;;;;;12.23;11.50;;;15.10;83.60;;;;;;4971254;28;20023;-89
2021/12/28 12:17:29;;;;;;;10.70;10.20;;;15.20;83.60;;;;;;4962159;28;20035;-90
2021/12/28 12:19:59;;;;;;;10.70;10.15;;;15.20;83.60;;;;;;4964129;28;20512;-89
2021/12/28 12:22:35;;;;;;;11.27;10.73;;;15.20;83.70;;;;;;4964748;28;20022;-86
2021/12/28 12:25:11;;;;;;;11.35;10.63;;;15.30;83.40;;;;;;4964458;28;20034;-87
2021/12/28 12:27:46;;;;;;;10.93;10.38;;;15.30;83.40;;;;;;4972870;28;20460;-87
2021/12/28 12:30:18;;;;;;;12.45;11.85;;;15.20;83.30;;;;;;4961022;28;20039;-86
2021/12/28 12:32:57;;;;;;;11.23;10.73;;;15.20;83.40;;;;;;4961223;28;20058;-89
2021/12/28 12:35:42;;;;;;;10.75;10.25;;;15.10;83.50;;;;;;4963269;28;20024;-84
2021/12/28 12:38:17;;;;;;;11.45;10.50;;;15.10;83.50;;;;;;4961782;28;20039;-84
2021/12/28 12:41:21;;;;;;;11.40;10.90;;;15.20;83.60;;;;;;4983598;28;20513;-84
2021/12/28 12:43:50;;;;;;;10.73;10.23;;;15.10;83.50;;;;;;4983517;28;20388;-86
2021/12/28 12:46:32;;;;;;;11.25;10.75;;;15.10;83.50;;;;;;4967008;28;20042;-87
2021/12/28 12:49:00;;;;;;;10.88;10.38;;;15.10;83.60;;;;;;4964369;28;20515;-87